DLH4494 EDDH-EDDF
Flight info
| Callsign | DLH4494 |
|---|---|
| Flight time | 0h 47m |
| Altitude | 30000 |
| Route | AMLUH2G AMLUH M852 DENIX DCT RIMET/N0397F310 T157 KOKEB/N0343F230 T157 KERAX KERAX5A |
| Aircraft | A20N/M-SDE2E3FGHIRWXY/LB1 |
Departure
| Time | 2026-05-06 20:38 |
|---|---|
| Airport | Hamburg Helmut Schmidt Airport (EDDH) |
Arrival
| Time | 2026-05-06 21:25 |
|---|---|
| Airport | Frankfurt Main Airport (EDDF) |
| Time | Latitude | Longitude | Altitude | Speed | Heading |
|---|---|---|---|---|---|
| 2026-05-06 20:09 | 53.63077 | 10.00088 | 46 ft | 0 kts | 321° |
| 2026-05-06 20:29 | 53.63072 | 10.00095 | 48 ft | 3 kts | 320° |
| 2026-05-06 20:29 | 53.63056 | 10.00119 | 48 ft | 4 kts | 306° |
| 2026-05-06 20:29 | 53.63048 | 10.00155 | 45 ft | 4 kts | 239° |
| 2026-05-06 20:29 | 53.63053 | 10.00167 | 43 ft | 0 kts | 213° |
| 2026-05-06 20:34 | 53.63034 | 10.00146 | 46 ft | 7 kts | 213° |
| 2026-05-06 20:34 | 53.62975 | 10.00082 | 46 ft | 13 kts | 213° |
| 2026-05-06 20:34 | 53.62920 | 9.99990 | 48 ft | 2 kts | 246° |
| 2026-05-06 20:34 | 53.62918 | 9.99984 | 48 ft | 0 kts | 242° |
| 2026-05-06 20:35 | 53.62908 | 9.99952 | 48 ft | 7 kts | 242° |
| 2026-05-06 20:35 | 53.62872 | 9.99837 | 44 ft | 15 kts | 242° |
| 2026-05-06 20:35 | 53.62891 | 9.99723 | 45 ft | 0 kts | 327° |
| 2026-05-06 20:35 | 53.62895 | 9.99720 | 45 ft | 0 kts | 333° |
| 2026-05-06 20:37 | 53.62896 | 9.99720 | 45 ft | 1 kts | 333° |
| 2026-05-06 20:37 | 53.62982 | 9.99647 | 45 ft | 51 kts | 333° |
| 2026-05-06 20:37 | 53.63602 | 9.99119 | 47 ft | 145 kts | 332° |
| 2026-05-06 20:38 | 53.64624 | 9.98205 | 544 ft | 179 kts | 335° |
| 2026-05-06 20:38 | 53.65785 | 9.97217 | 1522 ft | 195 kts | 338° |
| 2026-05-06 20:38 | 53.67070 | 9.96132 | 2417 ft | 214 kts | 337° |
| 2026-05-06 20:38 | 53.68445 | 9.95045 | 3363 ft | 219 kts | 345° |
| 2026-05-06 20:39 | 53.69947 | 9.94633 | 4099 ft | 218 kts | 4° |
| 2026-05-06 20:39 | 53.71429 | 9.94699 | 5522 ft | 214 kts | 3° |
| 2026-05-06 20:39 | 53.72896 | 9.95047 | 6917 ft | 214 kts | 21° |
| 2026-05-06 20:39 | 53.74154 | 9.96441 | 8095 ft | 226 kts | 45° |
| 2026-05-06 20:40 | 53.74951 | 9.98751 | 8266 ft | 230 kts | 76° |
| 2026-05-06 20:40 | 53.74897 | 10.01431 | 8396 ft | 233 kts | 106° |
| 2026-05-06 20:40 | 53.74264 | 10.03971 | 8528 ft | 237 kts | 118° |
| 2026-05-06 20:40 | 53.73365 | 10.06370 | 8687 ft | 251 kts | 121° |
| 2026-05-06 20:41 | 53.72402 | 10.09028 | 9155 ft | 278 kts | 118° |
| 2026-05-06 20:41 | 53.71459 | 10.11770 | 10275 ft | 286 kts | 118° |
| 2026-05-06 20:41 | 53.70627 | 10.14236 | 10937 ft | 305 kts | 118° |
| 2026-05-06 20:41 | 53.69503 | 10.17444 | 11561 ft | 331 kts | 126° |
| 2026-05-06 20:42 | 53.67835 | 10.20166 | 12428 ft | 345 kts | 146° |
| 2026-05-06 20:42 | 53.65671 | 10.21839 | 13541 ft | 351 kts | 164° |
| 2026-05-06 20:42 | 53.63307 | 10.22938 | 14628 ft | 355 kts | 166° |
| 2026-05-06 20:42 | 53.60899 | 10.24031 | 15640 ft | 361 kts | 166° |
| 2026-05-06 20:43 | 53.59152 | 10.24822 | 16378 ft | 364 kts | 166° |
| 2026-05-06 20:43 | 53.58164 | 10.25270 | 16791 ft | 367 kts | 166° |
| 2026-05-06 20:43 | 53.56243 | 10.26145 | 17557 ft | 371 kts | 166° |
| 2026-05-06 20:43 | 53.54223 | 10.27068 | 18333 ft | 376 kts | 166° |
| 2026-05-06 20:44 | 53.51659 | 10.28239 | 19222 ft | 380 kts | 166° |
| 2026-05-06 20:44 | 53.49083 | 10.29415 | 20100 ft | 385 kts | 166° |
| 2026-05-06 20:44 | 53.46477 | 10.30603 | 20957 ft | 390 kts | 166° |
| 2026-05-06 20:44 | 53.43836 | 10.31806 | 21812 ft | 395 kts | 166° |
| 2026-05-06 20:45 | 53.41161 | 10.33022 | 22662 ft | 401 kts | 166° |
| 2026-05-06 20:45 | 53.38457 | 10.34243 | 23492 ft | 405 kts | 167° |
| 2026-05-06 20:45 | 53.35951 | 10.35371 | 24164 ft | 408 kts | 166° |
| 2026-05-06 20:45 | 53.33995 | 10.36249 | 24678 ft | 411 kts | 166° |
| 2026-05-06 20:46 | 53.31254 | 10.37478 | 25380 ft | 415 kts | 166° |
| 2026-05-06 20:46 | 53.28441 | 10.38739 | 26055 ft | 419 kts | 166° |
| 2026-05-06 20:46 | 53.25613 | 10.40005 | 26772 ft | 421 kts | 166° |
| 2026-05-06 20:46 | 53.22767 | 10.41278 | 27428 ft | 425 kts | 166° |
| 2026-05-06 20:47 | 53.19932 | 10.42543 | 28039 ft | 428 kts | 166° |
| 2026-05-06 20:47 | 53.17033 | 10.43833 | 28658 ft | 431 kts | 167° |
| 2026-05-06 20:47 | 53.14075 | 10.44826 | 29250 ft | 433 kts | 173° |
| 2026-05-06 20:47 | 53.11057 | 10.45260 | 29633 ft | 435 kts | 179° |
| 2026-05-06 20:48 | 53.08026 | 10.45109 | 29768 ft | 435 kts | 186° |
| 2026-05-06 20:48 | 53.05036 | 10.44687 | 29872 ft | 436 kts | 185° |
| 2026-05-06 20:48 | 53.02009 | 10.44382 | 29892 ft | 436 kts | 184° |
| 2026-05-06 20:49 | 52.95935 | 10.43801 | 29883 ft | 435 kts | 186° |
| 2026-05-06 20:49 | 52.90029 | 10.41882 | 29884 ft | 435 kts | 194° |
| 2026-05-06 20:50 | 52.84131 | 10.39593 | 29884 ft | 435 kts | 194° |
| 2026-05-06 20:50 | 52.78270 | 10.37246 | 29876 ft | 434 kts | 195° |
| 2026-05-06 20:51 | 52.72389 | 10.34875 | 29879 ft | 434 kts | 195° |
| 2026-05-06 20:51 | 52.66561 | 10.32531 | 29870 ft | 434 kts | 194° |
| 2026-05-06 20:52 | 52.60667 | 10.30170 | 29879 ft | 434 kts | 194° |
| 2026-05-06 20:52 | 52.54833 | 10.27840 | 29874 ft | 433 kts | 194° |
| 2026-05-06 20:53 | 52.48959 | 10.25501 | 29874 ft | 433 kts | 194° |
| 2026-05-06 20:53 | 52.43126 | 10.23184 | 29873 ft | 433 kts | 194° |
| 2026-05-06 20:54 | 52.37254 | 10.20858 | 29862 ft | 433 kts | 194° |
| 2026-05-06 20:54 | 52.31422 | 10.18555 | 29841 ft | 431 kts | 195° |
| 2026-05-06 20:55 | 52.25613 | 10.16269 | 29849 ft | 428 kts | 195° |
| 2026-05-06 20:55 | 52.19844 | 10.14001 | 29840 ft | 428 kts | 195° |
| 2026-05-06 20:56 | 52.14040 | 10.11727 | 29838 ft | 428 kts | 194° |
| 2026-05-06 20:56 | 52.08233 | 10.09457 | 29829 ft | 427 kts | 195° |
| 2026-05-06 20:57 | 52.02525 | 10.07236 | 29830 ft | 424 kts | 195° |
| 2026-05-06 20:57 | 51.96778 | 10.05000 | 29831 ft | 424 kts | 195° |
| 2026-05-06 20:58 | 51.91065 | 10.02784 | 29829 ft | 424 kts | 195° |
| 2026-05-06 20:58 | 51.85301 | 10.00555 | 29815 ft | 423 kts | 195° |
| 2026-05-06 20:59 | 51.79657 | 9.98379 | 29829 ft | 419 kts | 195° |
| 2026-05-06 20:59 | 51.73971 | 9.96190 | 29825 ft | 419 kts | 195° |
| 2026-05-06 21:00 | 51.68332 | 9.94026 | 29827 ft | 419 kts | 195° |
| 2026-05-06 21:00 | 51.62635 | 9.91845 | 29766 ft | 419 kts | 195° |
| 2026-05-06 21:00 | 51.59836 | 9.90774 | 29440 ft | 416 kts | 194° |
| 2026-05-06 21:01 | 51.57011 | 9.89697 | 29018 ft | 414 kts | 194° |
| 2026-05-06 21:01 | 51.54213 | 9.88631 | 28599 ft | 413 kts | 194° |
| 2026-05-06 21:01 | 51.51413 | 9.87567 | 28182 ft | 411 kts | 194° |
| 2026-05-06 21:01 | 51.48636 | 9.86512 | 27778 ft | 410 kts | 194° |
| 2026-05-06 21:02 | 51.45892 | 9.85470 | 27377 ft | 409 kts | 194° |
| 2026-05-06 21:02 | 51.43121 | 9.84420 | 26983 ft | 407 kts | 194° |
| 2026-05-06 21:02 | 51.40354 | 9.83372 | 26591 ft | 406 kts | 194° |
| 2026-05-06 21:02 | 51.37604 | 9.82331 | 26138 ft | 404 kts | 194° |
| 2026-05-06 21:03 | 51.34905 | 9.81312 | 25686 ft | 402 kts | 194° |
| 2026-05-06 21:03 | 51.32193 | 9.80290 | 25233 ft | 400 kts | 194° |
| 2026-05-06 21:03 | 51.29470 | 9.79265 | 24785 ft | 399 kts | 194° |
| 2026-05-06 21:03 | 51.26766 | 9.78247 | 24345 ft | 397 kts | 195° |
| 2026-05-06 21:04 | 51.24076 | 9.77236 | 23921 ft | 396 kts | 195° |
| 2026-05-06 21:04 | 51.21416 | 9.76237 | 23503 ft | 395 kts | 195° |
| 2026-05-06 21:04 | 51.18767 | 9.75243 | 23026 ft | 393 kts | 195° |
| 2026-05-06 21:04 | 51.16110 | 9.74247 | 22521 ft | 389 kts | 194° |
| 2026-05-06 21:05 | 51.13489 | 9.73265 | 22036 ft | 384 kts | 194° |
| 2026-05-06 21:05 | 51.10885 | 9.72292 | 21555 ft | 382 kts | 194° |
| 2026-05-06 21:05 | 51.08301 | 9.71328 | 21075 ft | 380 kts | 194° |
| 2026-05-06 21:05 | 51.05767 | 9.70383 | 20628 ft | 377 kts | 194° |
| 2026-05-06 21:06 | 51.03214 | 9.69433 | 20176 ft | 375 kts | 194° |
| 2026-05-06 21:06 | 51.00675 | 9.68489 | 19727 ft | 373 kts | 194° |
| 2026-05-06 21:06 | 50.98153 | 9.67552 | 19283 ft | 370 kts | 194° |
| 2026-05-06 21:06 | 50.95647 | 9.66621 | 18848 ft | 368 kts | 195° |
| 2026-05-06 21:07 | 50.93158 | 9.65698 | 18413 ft | 367 kts | 194° |
| 2026-05-06 21:07 | 50.90690 | 9.64781 | 17975 ft | 368 kts | 194° |
| 2026-05-06 21:07 | 50.88206 | 9.63861 | 17489 ft | 365 kts | 194° |
| 2026-05-06 21:07 | 50.85744 | 9.62951 | 17011 ft | 361 kts | 194° |
| 2026-05-06 21:08 | 50.83294 | 9.62048 | 16534 ft | 358 kts | 194° |
| 2026-05-06 21:08 | 50.80862 | 9.61151 | 16068 ft | 356 kts | 194° |
| 2026-05-06 21:08 | 50.78492 | 9.60279 | 15581 ft | 353 kts | 194° |
| 2026-05-06 21:08 | 50.76105 | 9.59400 | 15082 ft | 350 kts | 194° |
| 2026-05-06 21:09 | 50.73734 | 9.58528 | 14591 ft | 347 kts | 194° |
| 2026-05-06 21:09 | 50.71388 | 9.57666 | 14107 ft | 345 kts | 194° |
| 2026-05-06 21:09 | 50.69050 | 9.56808 | 13626 ft | 343 kts | 194° |
| 2026-05-06 21:09 | 50.66737 | 9.55961 | 13093 ft | 340 kts | 194° |
| 2026-05-06 21:10 | 50.64442 | 9.55120 | 12564 ft | 336 kts | 194° |
| 2026-05-06 21:10 | 50.62239 | 9.53953 | 12117 ft | 330 kts | 208° |
| 2026-05-06 21:10 | 50.60271 | 9.52260 | 11966 ft | 314 kts | 210° |
| 2026-05-06 21:10 | 50.58426 | 9.50653 | 11825 ft | 299 kts | 210° |
| 2026-05-06 21:11 | 50.56644 | 9.49104 | 11643 ft | 286 kts | 210° |
| 2026-05-06 21:11 | 50.54933 | 9.47620 | 11226 ft | 282 kts | 210° |
| 2026-05-06 21:11 | 50.53215 | 9.46129 | 10774 ft | 280 kts | 210° |
| 2026-05-06 21:11 | 50.51501 | 9.44646 | 10321 ft | 279 kts | 210° |
| 2026-05-06 21:12 | 50.49826 | 9.43194 | 9899 ft | 277 kts | 210° |
| 2026-05-06 21:12 | 50.48142 | 9.41748 | 9493 ft | 273 kts | 210° |
| 2026-05-06 21:12 | 50.46472 | 9.40328 | 9022 ft | 272 kts | 210° |
| 2026-05-06 21:12 | 50.44809 | 9.38918 | 8557 ft | 270 kts | 210° |
| 2026-05-06 21:13 | 50.43161 | 9.37521 | 8111 ft | 268 kts | 210° |
| 2026-05-06 21:13 | 50.41537 | 9.36151 | 7671 ft | 267 kts | 210° |
| 2026-05-06 21:13 | 50.39905 | 9.34773 | 7238 ft | 265 kts | 210° |
| 2026-05-06 21:13 | 50.38280 | 9.33402 | 6800 ft | 264 kts | 210° |
| 2026-05-06 21:14 | 50.36665 | 9.32045 | 6379 ft | 262 kts | 210° |
| 2026-05-06 21:14 | 50.35053 | 9.30691 | 5923 ft | 261 kts | 210° |
| 2026-05-06 21:14 | 50.33470 | 9.29359 | 5423 ft | 261 kts | 210° |
| 2026-05-06 21:14 | 50.31885 | 9.28026 | 5222 ft | 257 kts | 210° |
| 2026-05-06 21:15 | 50.30277 | 9.26663 | 5118 ft | 263 kts | 210° |
| 2026-05-06 21:15 | 50.28677 | 9.25311 | 5020 ft | 260 kts | 210° |
| 2026-05-06 21:15 | 50.27117 | 9.24002 | 4977 ft | 245 kts | 210° |
| 2026-05-06 21:15 | 50.25671 | 9.22828 | 4983 ft | 229 kts | 210° |
| 2026-05-06 21:16 | 50.24259 | 9.21681 | 4988 ft | 229 kts | 210° |
| 2026-05-06 21:16 | 50.22842 | 9.20518 | 4988 ft | 231 kts | 210° |
| 2026-05-06 21:16 | 50.21539 | 9.19074 | 4992 ft | 230 kts | 223° |
| 2026-05-06 21:16 | 50.20374 | 9.17424 | 4988 ft | 229 kts | 224° |
| 2026-05-06 21:17 | 50.19218 | 9.15698 | 4982 ft | 228 kts | 234° |
| 2026-05-06 21:17 | 50.18618 | 9.13441 | 4991 ft | 226 kts | 256° |
| 2026-05-06 21:17 | 50.18224 | 9.11056 | 4988 ft | 228 kts | 254° |
| 2026-05-06 21:17 | 50.17749 | 9.08710 | 4988 ft | 229 kts | 251° |
| 2026-05-06 21:18 | 50.17211 | 9.06384 | 4987 ft | 227 kts | 250° |
| 2026-05-06 21:18 | 50.16657 | 9.04054 | 4989 ft | 230 kts | 250° |
| 2026-05-06 21:18 | 50.16104 | 9.01726 | 4993 ft | 228 kts | 250° |
| 2026-05-06 21:18 | 50.15552 | 8.99405 | 4994 ft | 227 kts | 250° |
| 2026-05-06 21:19 | 50.15007 | 8.97112 | 4993 ft | 230 kts | 250° |
| 2026-05-06 21:19 | 50.14454 | 8.94786 | 4998 ft | 228 kts | 250° |
| 2026-05-06 21:19 | 50.14089 | 8.93252 | 4994 ft | 226 kts | 250° |
| 2026-05-06 21:19 | 50.13362 | 8.90196 | 4995 ft | 229 kts | 250° |
| 2026-05-06 21:20 | 50.12807 | 8.87867 | 4993 ft | 226 kts | 250° |
| 2026-05-06 21:20 | 50.12436 | 8.86307 | 4999 ft | 228 kts | 250° |
| 2026-05-06 21:20 | 50.11887 | 8.84000 | 4823 ft | 230 kts | 250° |
| 2026-05-06 21:20 | 50.11328 | 8.81654 | 4489 ft | 229 kts | 250° |
| 2026-05-06 21:21 | 50.10778 | 8.79345 | 4149 ft | 225 kts | 251° |
| 2026-05-06 21:21 | 50.10239 | 8.77084 | 3825 ft | 227 kts | 251° |
| 2026-05-06 21:21 | 50.09687 | 8.74768 | 3490 ft | 226 kts | 252° |
| 2026-05-06 21:21 | 50.09145 | 8.72495 | 3170 ft | 221 kts | 252° |
| 2026-05-06 21:22 | 50.08614 | 8.70265 | 2845 ft | 217 kts | 252° |
| 2026-05-06 21:22 | 50.08096 | 8.68096 | 2568 ft | 204 kts | 252° |
| 2026-05-06 21:22 | 50.07655 | 8.66256 | 2283 ft | 162 kts | 252° |
| 2026-05-06 21:22 | 50.07299 | 8.64760 | 2056 ft | 134 kts | 253° |
| 2026-05-06 21:23 | 50.06996 | 8.63485 | 1870 ft | 118 kts | 254° |
| 2026-05-06 21:23 | 50.06713 | 8.62292 | 1715 ft | 119 kts | 253° |
| 2026-05-06 21:23 | 50.06433 | 8.61123 | 1536 ft | 116 kts | 253° |
| 2026-05-06 21:23 | 50.06149 | 8.59933 | 1361 ft | 117 kts | 252° |
| 2026-05-06 21:24 | 50.05870 | 8.58763 | 1186 ft | 118 kts | 252° |
| 2026-05-06 21:24 | 50.05585 | 8.57570 | 1010 ft | 118 kts | 251° |
| 2026-05-06 21:24 | 50.05306 | 8.56389 | 782 ft | 116 kts | 250° |
| 2026-05-06 21:24 | 50.05015 | 8.55210 | 643 ft | 117 kts | 251° |
| 2026-05-06 21:25 | 50.04735 | 8.54024 | 503 ft | 116 kts | 251° |
| 2026-05-06 21:25 | 50.04455 | 8.52850 | 366 ft | 112 kts | 250° |
| 2026-05-06 21:25 | 50.04240 | 8.51934 | 334 ft | 53 kts | 249° |
| 2026-05-06 21:25 | 50.04143 | 8.51595 | 330 ft | 33 kts | 229° |
| 2026-05-06 21:26 | 50.03988 | 8.51393 | 331 ft | 14 kts | 224° |
| 2026-05-06 21:26 | 50.03981 | 8.51383 | 328 ft | 2 kts | 223° |
| 2026-05-06 21:26 | 50.03961 | 8.51362 | 331 ft | 5 kts | 204° |
| 2026-05-06 21:26 | 50.03911 | 8.51432 | 335 ft | 21 kts | 86° |
| 2026-05-06 21:27 | 50.03966 | 8.51699 | 334 ft | 29 kts | 70° |
| 2026-05-06 21:27 | 50.04044 | 8.52021 | 336 ft | 33 kts | 69° |
| 2026-05-06 21:27 | 50.04130 | 8.52368 | 349 ft | 36 kts | 70° |
| 2026-05-06 21:27 | 50.04221 | 8.52741 | 352 ft | 38 kts | 71° |
| 2026-05-06 21:28 | 50.04312 | 8.53135 | 358 ft | 39 kts | 69° |
| 2026-05-06 21:28 | 50.04394 | 8.53485 | 374 ft | 27 kts | 80° |
| 2026-05-06 21:28 | 50.04415 | 8.53795 | 375 ft | 31 kts | 83° |
| 2026-05-06 21:28 | 50.04438 | 8.54153 | 375 ft | 35 kts | 84° |
| 2026-05-06 21:29 | 50.04445 | 8.54542 | 366 ft | 37 kts | 107° |
| 2026-05-06 21:29 | 50.04278 | 8.54794 | 360 ft | 30 kts | 159° |
| 2026-05-06 21:29 | 50.04124 | 8.54879 | 357 ft | 21 kts | 160° |
| 2026-05-06 21:29 | 50.04023 | 8.54963 | 358 ft | 17 kts | 120° |
| 2026-05-06 21:30 | 50.04052 | 8.55147 | 354 ft | 21 kts | 68° |
| 2026-05-06 21:30 | 50.04110 | 8.55389 | 354 ft | 27 kts | 70° |
| 2026-05-06 21:30 | 50.04181 | 8.55687 | 352 ft | 31 kts | 69° |
| 2026-05-06 21:30 | 50.04264 | 8.56019 | 359 ft | 35 kts | 68° |
| 2026-05-06 21:31 | 50.04354 | 8.56390 | 356 ft | 38 kts | 70° |
| 2026-05-06 21:31 | 50.04432 | 8.56734 | 363 ft | 16 kts | 71° |
| 2026-05-06 21:31 | 50.04493 | 8.56877 | 359 ft | 11 kts | 14° |
| 2026-05-06 21:31 | 50.04522 | 8.56860 | 361 ft | 1 kts | 301° |
| 2026-05-06 21:32 | 50.04524 | 8.56820 | 359 ft | 5 kts | 275° |
| 2026-05-06 21:32 | 50.04545 | 8.56739 | 362 ft | 0 kts | 295° |